Time;durP1;ratioP1;P1;durP2;ratioP2;P2;SDS_P1;SDS_P2;PMS_P1;PMS_P2;Temp;Humidity;BMP_temperature;BMP_pressure;BME280_temperature;BME280_humidity;BME280_pressure;Samples;Min_cycle;Max_cycle;Signal;HPM_P1;HPM_P2
2022/11/07 00:01:42;;;;;;;33.67;16.77;;;;;;;;;;734250;190;918159;-73
2022/11/07 00:04:08;;;;;;;27.07;16.43;;;;;;;;;;725677;191;917894;-74
2022/11/07 00:06:36;;;;;;;24.33;16.45;;;;;;;;;;733500;190;919469;-74
2022/11/07 00:09:00;;;;;;;28.60;16.00;;;;;;;;;;739223;191;916940;-74
2022/11/07 00:11:25;;;;;;;22.83;14.37;;;;;;;;;;733559;189;919651;-73
2022/11/07 00:13:51;;;;;;;25.37;14.45;;;;;;;;;;733383;190;919381;-74
2022/11/07 00:16:17;;;;;;;29.47;16.87;;;;;;;;;;737286;190;815215;-73
2022/11/07 00:18:43;;;;;;;27.90;16.50;;;;;;;;;;738023;190;909607;-73
2022/11/07 00:21:09;;;;;;;26.70;16.90;;;;;;;;;;733575;190;914866;-73
2022/11/07 00:23:35;;;;;;;31.13;16.40;;;;;;;;;;735329;190;911538;-73
2022/11/07 00:26:01;;;;;;;30.40;16.07;;;;;;;;;;732597;190;914366;-73
2022/11/07 00:28:26;;;;;;;32.70;15.03;;;;;;;;;;725653;190;816750;-73
2022/11/07 00:30:52;;;;;;;23.67;14.90;;;;;;;;;;727506;190;1015021;-74
2022/11/07 00:33:18;;;;;;;20.53;16.10;;;;;;;;;;735367;188;1013206;-74
2022/11/07 00:35:44;;;;;;;24.83;15.10;;;;;;;;;;734116;190;910593;-73
2022/11/07 00:38:10;;;;;;;24.73;15.40;;;;;;;;;;734256;191;910922;-73
2022/11/07 00:40:36;;;;;;;30.37;15.80;;;;;;;;;;734425;190;916605;-73
2022/11/07 00:43:01;;;;;;;25.67;14.70;;;;;;;;;;731903;188;916490;-73
2022/11/07 00:45:27;;;;;;;30.30;14.97;;;;;;;;;;733717;191;1015804;-73
2022/11/07 00:47:53;;;;;;;24.53;13.43;;;;;;;;;;733843;187;914516;-73
2022/11/07 00:50:19;;;;;;;22.73;13.60;;;;;;;;;;731759;190;915761;-73
2022/11/07 00:52:45;;;;;;;20.50;13.63;;;;;;;;;;726712;191;1018413;-73
2022/11/07 00:55:11;;;;;;;22.10;13.53;;;;;;;;;;729428;191;919656;-73
2022/11/07 00:57:37;;;;;;;22.73;13.13;;;;;;;;;;726835;191;921850;-73
2022/11/07 01:00:02;;;;;;;19.87;11.77;;;;;;;;;;734697;190;810260;-73
2022/11/07 01:02:28;;;;;;;22.93;13.60;;;;;;;;;;729911;190;913553;-74
2022/11/07 01:07:26;;;;;;;20.87;12.40;;;;;;;;;;725925;190;919872;-74
2022/11/07 01:09:52;;;;;;;17.85;11.32;;;;;;;;;;733623;188;816697;-74
2022/11/07 01:12:18;;;;;;;18.60;10.43;;;;;;;;;;728297;190;918388;-73
2022/11/07 01:14:43;;;;;;;20.23;12.80;;;;;;;;;;730766;188;918883;-74
2022/11/07 01:17:09;;;;;;;20.40;12.40;;;;;;;;;;731142;191;939176;-73
2022/11/07 01:19:35;;;;;;;18.43;10.60;;;;;;;;;;733775;188;816662;-74
2022/11/07 01:22:01;;;;;;;18.65;10.25;;;;;;;;;;732860;189;918579;-72
2022/11/07 01:24:27;;;;;;;18.00;11.00;;;;;;;;;;734543;190;917346;-74
2022/11/07 01:26:53;;;;;;;17.50;9.50;;;;;;;;;;733248;181;906156;-74
2022/11/07 01:29:18;;;;;;;15.77;10.53;;;;;;;;;;735369;191;915348;-74
2022/11/07 01:31:44;;;;;;;19.63;11.40;;;;;;;;;;723657;191;921307;-74
2022/11/07 01:34:10;;;;;;;19.63;10.43;;;;;;;;;;725638;191;918553;-74
2022/11/07 01:36:36;;;;;;;17.40;11.00;;;;;;;;;;736919;190;817019;-74
2022/11/07 01:39:02;;;;;;;17.57;11.30;;;;;;;;;;704777;195;919543;-73
2022/11/07 01:41:28;;;;;;;21.00;11.40;;;;;;;;;;719973;194;913897;-72
2022/11/07 01:43:54;;;;;;;15.90;10.40;;;;;;;;;;703968;198;917884;-75
2022/11/07 01:46:19;;;;;;;21.87;12.70;;;;;;;;;;735909;190;919066;-73
2022/11/07 01:48:45;;;;;;;18.23;10.68;;;;;;;;;;728405;188;918928;-74
2022/11/07 01:51:11;;;;;;;23.00;12.20;;;;;;;;;;731281;191;1018217;-74
2022/11/07 01:53:37;;;;;;;34.17;13.20;;;;;;;;;;738939;190;919604;-73
2022/11/07 01:56:03;;;;;;;15.50;10.47;;;;;;;;;;735639;190;909296;-73
2022/11/07 01:58:29;;;;;;;28.13;13.60;;;;;;;;;;739355;186;918457;-73
2022/11/07 02:00:55;;;;;;;15.10;10.10;;;;;;;;;;741553;188;919570;-73
2022/11/07 02:03:20;;;;;;;17.87;11.10;;;;;;;;;;734383;189;919146;-73
2022/11/07 02:05:46;;;;;;;19.03;10.93;;;;;;;;;;736183;191;920103;-73
2022/11/07 02:08:12;;;;;;;25.43;13.17;;;;;;;;;;733514;188;914827;-74
2022/11/07 02:10:38;;;;;;;15.47;12.40;;;;;;;;;;737083;191;918630;-73
2022/11/07 02:13:04;;;;;;;20.57;12.87;;;;;;;;;;732110;189;915078;-74
2022/11/07 02:15:30;;;;;;;17.00;11.65;;;;;;;;;;734360;190;811987;-74
2022/11/07 02:17:55;;;;;;;17.70;12.20;;;;;;;;;;736252;188;811878;-73
2022/11/07 02:20:21;;;;;;;18.93;12.10;;;;;;;;;;732888;190;919288;-73
2022/11/07 02:22:52;;;;;;;18.30;11.30;;;;;;;;;;731406;189;859596;-73
2022/11/07 02:25:18;;;;;;;21.37;12.47;;;;;;;;;;729548;189;915505;-74
2022/11/07 02:27:44;;;;;;;19.80;10.97;;;;;;;;;;737503;187;913435;-73
2022/11/07 02:30:11;;;;;;;17.57;10.73;;;;;;;;;;732089;188;911053;-74
2022/11/07 02:32:37;;;;;;;20.15;12.70;;;;;;;;;;731664;190;915636;-74
2022/11/07 02:35:02;;;;;;;18.10;10.67;;;;;;;;;;736855;186;899470;-73
2022/11/07 02:37:28;;;;;;;14.93;10.00;;;;;;;;;;730653;190;915243;-74
2022/11/07 02:39:54;;;;;;;17.42;11.40;;;;;;;;;;732757;190;918842;-73
2022/11/07 02:42:20;;;;;;;21.70;12.83;;;;;;;;;;737490;191;914844;-74
2022/11/07 02:44:46;;;;;;;18.90;11.40;;;;;;;;;;734519;188;915190;-74
2022/11/07 02:47:12;;;;;;;20.03;12.23;;;;;;;;;;732797;190;1016750;-74
2022/11/07 02:49:39;;;;;;;17.45;10.40;;;;;;;;;;733958;190;919367;-74
2022/11/07 02:52:04;;;;;;;19.97;12.70;;;;;;;;;;744862;186;816896;-74
2022/11/07 02:54:30;;;;;;;17.60;11.77;;;;;;;;;;737844;188;918670;-75
2022/11/07 02:56:56;;;;;;;16.73;10.90;;;;;;;;;;733026;190;918777;-74
2022/11/07 02:59:22;;;;;;;20.70;11.90;;;;;;;;;;741730;190;815958;-74
2022/11/07 03:01:47;;;;;;;22.03;12.03;;;;;;;;;;728367;191;816830;-74
2022/11/07 03:04:14;;;;;;;16.47;11.47;;;;;;;;;;732504;190;913403;-74
2022/11/07 03:06:39;;;;;;;20.37;13.07;;;;;;;;;;735003;190;1023860;-74
2022/11/07 03:09:05;;;;;;;21.17;12.83;;;;;;;;;;713934;190;915493;-74
2022/11/07 03:11:31;;;;;;;17.73;11.40;;;;;;;;;;732884;190;912163;-74
2022/11/07 03:13:57;;;;;;;24.17;13.27;;;;;;;;;;737519;190;905850;-74
2022/11/07 03:16:23;;;;;;;22.70;12.50;;;;;;;;;;733265;190;912853;-74
2022/11/07 03:18:48;;;;;;;20.87;12.97;;;;;;;;;;736407;188;615249;-74
2022/11/07 03:21:14;;;;;;;24.40;12.83;;;;;;;;;;739569;190;633226;-74
2022/11/07 03:23:40;;;;;;;20.93;12.07;;;;;;;;;;732624;190;877695;-74
2022/11/07 03:26:06;;;;;;;21.60;12.97;;;;;;;;;;731329;191;915593;-74
2022/11/07 03:28:32;;;;;;;22.27;11.90;;;;;;;;;;733913;188;906652;-74
2022/11/07 03:30:58;;;;;;;19.07;10.97;;;;;;;;;;737117;190;913599;-75
2022/11/07 03:33:24;;;;;;;20.10;11.37;;;;;;;;;;736025;188;922103;-75
2022/11/07 03:35:50;;;;;;;16.23;10.07;;;;;;;;;;732834;191;919821;-74
2022/11/07 03:38:16;;;;;;;18.13;9.70;;;;;;;;;;733513;191;810136;-75
2022/11/07 03:40:42;;;;;;;14.17;8.53;;;;;;;;;;731633;190;915055;-75
2022/11/07 03:43:08;;;;;;;19.87;9.17;;;;;;;;;;732549;188;914031;-75
2022/11/07 03:45:33;;;;;;;16.55;9.48;;;;;;;;;;732374;190;912694;-75
2022/11/07 03:47:59;;;;;;;18.20;9.93;;;;;;;;;;735597;187;919358;-74
2022/11/07 03:50:25;;;;;;;18.57;11.10;;;;;;;;;;728755;190;936202;-74
2022/11/07 03:52:51;;;;;;;25.57;13.07;;;;;;;;;;728296;190;910590;-74
2022/11/07 03:55:18;;;;;;;24.87;12.30;;;;;;;;;;734822;188;886736;-74
2022/11/07 03:57:43;;;;;;;31.53;11.50;;;;;;;;;;705874;198;909808;-75
2022/11/07 04:00:10;;;;;;;16.77;11.87;;;;;;;;;;720374;192;812989;-75
2022/11/07 04:02:36;;;;;;;19.47;13.30;;;;;;;;;;742144;191;891514;-75
2022/11/07 04:05:02;;;;;;;19.15;13.02;;;;;;;;;;735159;188;915227;-74
2022/11/07 04:07:27;;;;;;;18.37;11.50;;;;;;;;;;729449;190;921972;-76
2022/11/07 04:09:53;;;;;;;23.57;12.77;;;;;;;;;;729389;191;915631;-73
2022/11/07 04:17:22;;;;;;;22.10;12.35;;;;;;;;;;733288;190;916096;-74
2022/11/07 04:19:48;;;;;;;21.43;13.33;;;;;;;;;;730884;188;915997;-74
2022/11/07 04:22:14;;;;;;;25.40;13.70;;;;;;;;;;744890;186;916391;-75
2022/11/07 04:24:40;;;;;;;27.33;15.43;;;;;;;;;;734769;188;916147;-76
2022/11/07 04:29:37;;;;;;;24.50;15.10;;;;;;;;;;733426;190;922925;-74
2022/11/07 04:32:03;;;;;;;18.77;12.00;;;;;;;;;;735704;190;921263;-74
2022/11/07 04:34:29;;;;;;;19.77;12.02;;;;;;;;;;728564;190;940009;-73
2022/11/07 04:36:55;;;;;;;19.83;11.95;;;;;;;;;;735509;189;868812;-75
2022/11/07 04:39:21;;;;;;;21.57;12.70;;;;;;;;;;737235;190;860183;-74
2022/11/07 04:41:47;;;;;;;19.43;11.33;;;;;;;;;;729974;190;918567;-74
2022/11/07 04:44:13;;;;;;;22.37;13.17;;;;;;;;;;726955;190;949316;-74
2022/11/07 04:46:38;;;;;;;21.77;12.80;;;;;;;;;;739821;191;917597;-74
2022/11/07 04:49:04;;;;;;;18.60;11.82;;;;;;;;;;733097;191;916432;-74
2022/11/07 04:51:30;;;;;;;17.27;10.87;;;;;;;;;;734226;189;1023171;-74
2022/11/07 04:53:56;;;;;;;18.95;10.48;;;;;;;;;;735446;190;1021559;-75
2022/11/07 04:56:22;;;;;;;16.73;10.17;;;;;;;;;;734031;189;919117;-75
2022/11/07 04:58:48;;;;;;;16.50;9.90;;;;;;;;;;734003;189;917895;-74
2022/11/07 05:01:13;;;;;;;16.62;10.27;;;;;;;;;;737145;190;919098;-75
2022/11/07 05:03:40;;;;;;;13.47;8.50;;;;;;;;;;734081;190;918975;-75
2022/11/07 05:06:05;;;;;;;12.83;8.33;;;;;;;;;;730975;191;908414;-75
2022/11/07 05:08:31;;;;;;;18.67;9.63;;;;;;;;;;731459;191;853382;-74
2022/11/07 05:10:57;;;;;;;18.20;9.33;;;;;;;;;;737630;191;813871;-75
2022/11/07 05:13:23;;;;;;;14.00;7.97;;;;;;;;;;705401;197;923089;-74
2022/11/07 05:15:49;;;;;;;13.73;8.60;;;;;;;;;;733220;190;814840;-74
2022/11/07 05:18:15;;;;;;;16.40;7.97;;;;;;;;;;739632;188;815689;-75
2022/11/07 05:20:41;;;;;;;13.17;8.53;;;;;;;;;;733671;189;811076;-74
2022/11/07 05:23:11;;;;;;;24.03;9.70;;;;;;;;;;733457;190;809776;-74
2022/11/07 05:25:38;;;;;;;21.58;7.50;;;;;;;;;;734747;190;916060;-76
2022/11/07 05:28:04;;;;;;;19.90;8.97;;;;;;;;;;734841;189;903831;-74
2022/11/07 05:30:30;;;;;;;21.00;7.70;;;;;;;;;;728946;190;909640;-76
2022/11/07 05:32:56;;;;;;;11.30;7.33;;;;;;;;;;729260;188;867390;-74
2022/11/07 05:35:21;;;;;;;18.55;8.05;;;;;;;;;;739175;190;903524;-75
2022/11/07 05:37:47;;;;;;;12.07;7.50;;;;;;;;;;731461;190;1021538;-74
2022/11/07 05:40:13;;;;;;;15.20;7.30;;;;;;;;;;732899;187;922519;-75
2022/11/07 05:42:39;;;;;;;15.47;7.57;;;;;;;;;;733706;191;921448;-74
2022/11/07 05:45:05;;;;;;;10.80;7.07;;;;;;;;;;726164;189;919237;-75
2022/11/07 05:47:31;;;;;;;10.70;6.83;;;;;;;;;;734580;190;1008146;-75
2022/11/07 05:49:57;;;;;;;10.67;6.80;;;;;;;;;;728886;190;920009;-74
2022/11/07 05:52:23;;;;;;;12.70;6.53;;;;;;;;;;744002;186;641182;-75
2022/11/07 05:54:49;;;;;;;10.37;8.57;;;;;;;;;;731187;191;915731;-75
2022/11/07 05:57:15;;;;;;;13.90;7.20;;;;;;;;;;729143;190;918962;-75
2022/11/07 05:59:41;;;;;;;14.93;7.20;;;;;;;;;;734750;191;816686;-75
2022/11/07 06:02:07;;;;;;;13.93;8.10;;;;;;;;;;707064;198;919001;-74
2022/11/07 06:04:33;;;;;;;18.52;7.18;;;;;;;;;;722090;192;917316;-75
2022/11/07 06:06:59;;;;;;;14.70;7.00;;;;;;;;;;740187;190;785108;-75
2022/11/07 06:09:24;;;;;;;11.47;6.00;;;;;;;;;;735000;190;918268;-75
2022/11/07 06:11:50;;;;;;;9.20;6.00;;;;;;;;;;732883;190;918587;-75
2022/11/07 06:14:16;;;;;;;17.90;7.23;;;;;;;;;;736103;191;1091553;-73
2022/11/07 06:16:42;;;;;;;10.43;6.67;;;;;;;;;;735354;190;919839;-74
2022/11/07 06:19:08;;;;;;;9.93;6.33;;;;;;;;;;728916;187;1021742;-74
2022/11/07 06:21:34;;;;;;;12.07;7.07;;;;;;;;;;741699;190;626106;-74
2022/11/07 06:23:59;;;;;;;12.07;7.30;;;;;;;;;;739145;187;673260;-76
2022/11/07 06:26:25;;;;;;;18.03;6.97;;;;;;;;;;713680;193;656257;-75
2022/11/07 06:28:51;;;;;;;9.50;6.87;;;;;;;;;;735374;191;920192;-74
2022/11/07 06:31:17;;;;;;;16.13;7.30;;;;;;;;;;752927;187;26514;-74
2022/11/07 06:33:43;;;;;;;10.20;6.50;;;;;;;;;;737841;191;689956;-75
2022/11/07 06:36:09;;;;;;;16.40;6.90;;;;;;;;;;743863;190;739950;-74
2022/11/07 06:38:35;;;;;;;11.90;7.00;;;;;;;;;;746067;189;621778;-74
2022/11/07 06:41:03;;;;;;;19.97;7.47;;;;;;;;;;738478;188;642632;-75
2022/11/07 06:43:29;;;;;;;10.10;6.47;;;;;;;;;;735909;186;834454;-75
2022/11/07 06:45:55;;;;;;;18.40;6.63;;;;;;;;;;748418;189;615239;-74
2022/11/07 06:48:20;;;;;;;9.13;6.10;;;;;;;;;;739627;191;958506;-74
2022/11/07 06:50:46;;;;;;;13.27;7.10;;;;;;;;;;731874;190;781411;-75
2022/11/07 06:53:12;;;;;;;10.80;6.62;;;;;;;;;;735145;190;710048;-75
2022/11/07 06:55:38;;;;;;;9.47;6.47;;;;;;;;;;741872;191;618337;-75
2022/11/07 06:58:04;;;;;;;15.70;7.00;;;;;;;;;;732992;188;920804;-75
2022/11/07 07:00:30;;;;;;;10.43;6.15;;;;;;;;;;736715;189;917848;-74
2022/11/07 07:02:56;;;;;;;7.87;6.03;;;;;;;;;;747524;187;624602;-75
2022/11/07 07:05:21;;;;;;;13.00;5.67;;;;;;;;;;735251;190;694255;-75
2022/11/07 07:07:47;;;;;;;11.23;5.60;;;;;;;;;;734961;191;817491;-74
2022/11/07 07:10:13;;;;;;;11.97;6.10;;;;;;;;;;738331;191;884194;-75
2022/11/07 07:12:39;;;;;;;11.93;6.30;;;;;;;;;;740479;188;677474;-75
2022/11/07 07:15:05;;;;;;;10.80;5.93;;;;;;;;;;740758;187;755697;-75
2022/11/07 07:17:31;;;;;;;8.07;5.70;;;;;;;;;;747072;190;613484;-74
2022/11/07 07:19:57;;;;;;;9.73;5.77;;;;;;;;;;738286;190;709121;-75
2022/11/07 07:22:23;;;;;;;9.50;5.73;;;;;;;;;;750863;189;713990;-74
2022/11/07 07:24:52;;;;;;;16.73;8.10;;;;;;;;;;744941;190;640071;-75
2022/11/07 07:27:15;;;;;;;11.10;5.70;;;;;;;;;;742213;187;640882;-75
2022/11/07 07:29:40;;;;;;;9.37;4.93;;;;;;;;;;749097;189;611825;-75
2022/11/07 07:32:06;;;;;;;10.43;5.80;;;;;;;;;;740435;187;713856;-74
2022/11/07 07:34:32;;;;;;;11.43;7.13;;;;;;;;;;743690;189;628143;-75
2022/11/07 07:36:58;;;;;;;13.53;5.77;;;;;;;;;;738020;191;1021432;-75
2022/11/07 07:39:26;;;;;;;10.93;6.40;;;;;;;;;;736021;189;918739;-74
2022/11/07 07:41:50;;;;;;;14.18;7.18;;;;;;;;;;734622;190;919679;-75
2022/11/07 07:44:16;;;;;;;8.80;5.83;;;;;;;;;;738656;188;917228;-75
2022/11/07 07:46:41;;;;;;;8.93;5.10;;;;;;;;;;733567;191;917913;-74
2022/11/07 07:49:07;;;;;;;16.83;6.37;;;;;;;;;;732019;190;918648;-74
2022/11/07 07:51:33;;;;;;;17.07;6.60;;;;;;;;;;735921;190;917942;-74
2022/11/07 07:53:59;;;;;;;13.30;5.57;;;;;;;;;;730940;188;918719;-74
2022/11/07 07:56:25;;;;;;;6.53;5.63;;;;;;;;;;734096;190;817304;-74
2022/11/07 07:58:51;;;;;;;10.32;5.68;;;;;;;;;;739064;191;918217;-74
2022/11/07 08:01:17;;;;;;;10.90;6.00;;;;;;;;;;737416;190;919285;-74
2022/11/07 08:03:43;;;;;;;12.00;6.20;;;;;;;;;;733312;188;916372;-74
2022/11/07 08:06:09;;;;;;;10.90;6.10;;;;;;;;;;732587;191;915994;-74
2022/11/07 08:08:35;;;;;;;10.07;6.40;;;;;;;;;;738259;190;914087;-75
2022/11/07 08:11:02;;;;;;;14.73;6.80;;;;;;;;;;731250;190;915914;-75
2022/11/07 08:13:28;;;;;;;9.90;5.23;;;;;;;;;;734988;188;919193;-75
2022/11/07 08:15:53;;;;;;;9.07;5.10;;;;;;;;;;741125;191;815640;-75
2022/11/07 08:18:20;;;;;;;8.03;5.27;;;;;;;;;;733599;190;880454;-75
2022/11/07 08:20:45;;;;;;;9.23;6.07;;;;;;;;;;728551;190;920005;-75
2022/11/07 08:23:12;;;;;;;11.83;6.87;;;;;;;;;;738854;188;926952;-75
2022/11/07 08:25:38;;;;;;;8.87;6.20;;;;;;;;;;734081;190;918924;-74
2022/11/07 08:28:03;;;;;;;11.10;6.10;;;;;;;;;;732304;188;917442;-74
2022/11/07 08:30:30;;;;;;;16.20;6.37;;;;;;;;;;731789;190;919638;-75
2022/11/07 08:32:56;;;;;;;12.70;6.70;;;;;;;;;;738163;189;917708;-74
2022/11/07 08:35:22;;;;;;;14.60;6.20;;;;;;;;;;737009;190;923032;-74
2022/11/07 08:37:48;;;;;;;12.60;6.43;;;;;;;;;;736358;190;920107;-74
2022/11/07 08:40:14;;;;;;;11.00;6.33;;;;;;;;;;747008;183;26590;-74
2022/11/07 08:42:39;;;;;;;12.60;7.23;;;;;;;;;;736082;189;1139567;-75
2022/11/07 08:45:06;;;;;;;13.93;6.80;;;;;;;;;;733471;188;922058;-74
2022/11/07 08:47:33;;;;;;;14.00;6.63;;;;;;;;;;735974;190;917509;-74
2022/11/07 08:49:59;;;;;;;10.27;6.97;;;;;;;;;;733431;191;916496;-75
2022/11/07 08:52:25;;;;;;;10.43;7.20;;;;;;;;;;725086;190;832941;-74
2022/11/07 08:54:51;;;;;;;10.10;6.90;;;;;;;;;;726982;190;929959;-75
2022/11/07 08:57:16;;;;;;;12.03;6.03;;;;;;;;;;735999;191;762688;-75
2022/11/07 08:59:42;;;;;;;10.10;7.70;;;;;;;;;;733071;190;917145;-75
2022/11/07 09:02:09;;;;;;;11.83;6.23;;;;;;;;;;732710;190;916211;-75
2022/11/07 09:04:35;;;;;;;11.20;6.37;;;;;;;;;;736201;191;915488;-75
2022/11/07 09:07:01;;;;;;;11.90;5.93;;;;;;;;;;733332;191;919170;-75
2022/11/07 09:09:27;;;;;;;9.70;5.82;;;;;;;;;;732305;188;919158;-75
2022/11/07 09:11:53;;;;;;;9.82;6.85;;;;;;;;;;736364;189;919017;-76
2022/11/07 09:14:19;;;;;;;11.20;6.07;;;;;;;;;;743984;186;917923;-75
2022/11/07 09:16:45;;;;;;;15.33;5.60;;;;;;;;;;730937;190;921209;-76
2022/11/07 09:19:10;;;;;;;9.07;5.95;;;;;;;;;;729981;191;919116;-75
2022/11/07 09:21:36;;;;;;;8.00;6.30;;;;;;;;;;739977;191;918585;-75
2022/11/07 09:24:02;;;;;;;14.43;7.53;;;;;;;;;;734946;191;918517;-76
2022/11/07 09:26:28;;;;;;;13.53;8.70;;;;;;;;;;728554;191;918867;-75
2022/11/07 09:28:54;;;;;;;11.50;7.13;;;;;;;;;;731825;190;916616;-75
2022/11/07 09:31:20;;;;;;;13.35;7.00;;;;;;;;;;735590;190;925229;-74
2022/11/07 09:33:46;;;;;;;11.80;6.80;;;;;;;;;;730250;191;919447;-76
2022/11/07 09:36:12;;;;;;;13.60;7.63;;;;;;;;;;735644;191;918239;-75
2022/11/07 09:38:37;;;;;;;9.53;6.30;;;;;;;;;;733351;191;918222;-75
2022/11/07 09:41:05;;;;;;;12.43;7.07;;;;;;;;;;724765;190;817101;-75
2022/11/07 09:43:49;;;;;;;10.13;6.37;;;;;;;;;;729048;189;919090;-75
2022/11/07 09:46:31;;;;;;;8.57;5.80;;;;;;;;;;728151;190;920531;-75
2022/11/07 09:49:00;;;;;;;8.43;6.37;;;;;;;;;;736081;188;919278;-75
2022/11/07 09:51:26;;;;;;;10.93;5.97;;;;;;;;;;738870;190;918417;-75
2022/11/07 09:53:52;;;;;;;11.17;5.77;;;;;;;;;;730415;188;919232;-76
2022/11/07 09:56:18;;;;;;;12.03;6.50;;;;;;;;;;732389;190;920850;-74
2022/11/07 09:58:44;;;;;;;13.93;6.77;;;;;;;;;;737403;190;918860;-76
2022/11/07 10:01:11;;;;;;;11.03;5.97;;;;;;;;;;733192;190;921800;-75
2022/11/07 10:03:36;;;;;;;9.43;5.60;;;;;;;;;;728629;191;917964;-75
2022/11/07 10:06:04;;;;;;;10.90;6.77;;;;;;;;;;725923;191;933253;-75
2022/11/07 10:08:33;;;;;;;7.90;5.20;;;;;;;;;;736758;190;815731;-75
2022/11/07 10:10:59;;;;;;;12.87;6.43;;;;;;;;;;735998;191;713962;-76
2022/11/07 10:13:25;;;;;;;7.45;5.05;;;;;;;;;;733607;188;1017741;-75
2022/11/07 10:15:54;;;;;;;8.20;4.70;;;;;;;;;;734987;189;812957;-74
2022/11/07 10:18:24;;;;;;;11.53;5.70;;;;;;;;;;739649;188;914614;-75
2022/11/07 10:20:52;;;;;;;7.20;4.33;;;;;;;;;;733181;190;816007;-76
2022/11/07 10:23:25;;;;;;;8.43;5.00;;;;;;;;;;727996;189;922669;-74
2022/11/07 10:25:51;;;;;;;10.43;5.67;;;;;;;;;;729615;190;918948;-76
2022/11/07 10:28:17;;;;;;;8.93;5.40;;;;;;;;;;737726;188;809186;-75
2022/11/07 10:30:44;;;;;;;5.90;4.63;;;;;;;;;;734909;190;816579;-76
2022/11/07 10:33:10;;;;;;;8.63;5.13;;;;;;;;;;733483;188;1020542;-76
2022/11/07 10:35:37;;;;;;;7.90;4.67;;;;;;;;;;737021;190;919359;-76
2022/11/07 10:38:03;;;;;;;6.70;4.70;;;;;;;;;;728568;188;917538;-74
2022/11/07 10:40:32;;;;;;;7.30;5.20;;;;;;;;;;729258;190;927144;-75
2022/11/07 10:42:56;;;;;;;7.30;4.83;;;;;;;;;;732445;190;917922;-75
2022/11/07 10:45:22;;;;;;;6.93;5.10;;;;;;;;;;739611;190;918778;-75
2022/11/07 10:47:55;;;;;;;7.17;4.60;;;;;;;;;;729631;190;918692;-75
2022/11/07 10:50:20;;;;;;;6.50;3.93;;;;;;;;;;729395;190;918850;-75
2022/11/07 10:52:51;;;;;;;7.80;4.30;;;;;;;;;;740564;189;815903;-75
2022/11/07 10:55:16;;;;;;;8.20;4.67;;;;;;;;;;742420;188;814943;-74
2022/11/07 10:57:43;;;;;;;5.63;3.80;;;;;;;;;;728706;190;817086;-74
2022/11/07 11:00:15;;;;;;;7.17;5.00;;;;;;;;;;728708;190;920254;-75
2022/11/07 11:02:41;;;;;;;6.60;4.70;;;;;;;;;;733469;189;1020973;-74
2022/11/07 11:05:12;;;;;;;10.13;4.87;;;;;;;;;;706682;195;919005;-75
2022/11/07 11:07:38;;;;;;;7.90;4.53;;;;;;;;;;724345;193;918956;-75
2022/11/07 11:10:04;;;;;;;6.93;4.03;;;;;;;;;;711656;193;916876;-74
2022/11/07 11:12:30;;;;;;;8.67;4.60;;;;;;;;;;732892;189;817088;-74
2022/11/07 11:15:01;;;;;;;6.97;4.23;;;;;;;;;;730725;190;919303;-75
2022/11/07 11:17:27;;;;;;;7.70;4.60;;;;;;;;;;734214;190;920133;-76
2022/11/07 11:19:53;;;;;;;6.30;4.37;;;;;;;;;;738491;190;916809;-74
2022/11/07 11:22:19;;;;;;;9.47;4.57;;;;;;;;;;732876;190;918645;-74
2022/11/07 11:24:45;;;;;;;7.30;4.20;;;;;;;;;;731411;190;918946;-76
2022/11/07 11:27:12;;;;;;;8.97;6.50;;;;;;;;;;733785;190;816743;-74
2022/11/07 11:29:44;;;;;;;6.83;5.50;;;;;;;;;;736058;189;921514;-75
2022/11/07 11:32:11;;;;;;;9.37;5.40;;;;;;;;;;730980;190;916619;-75
2022/11/07 11:34:42;;;;;;;8.80;5.10;;;;;;;;;;731296;190;831016;-76
2022/11/07 11:37:08;;;;;;;7.07;4.80;;;;;;;;;;733141;191;917003;-75
2022/11/07 11:39:49;;;;;;;6.47;4.03;;;;;;;;;;738478;190;917492;-76
2022/11/07 11:42:21;;;;;;;8.10;5.10;;;;;;;;;;732324;189;27989;-77
2022/11/07 11:44:47;;;;;;;7.80;4.97;;;;;;;;;;736200;188;954613;-76
2022/11/07 11:47:28;;;;;;;9.40;5.57;;;;;;;;;;732049;190;958153;-75
2022/11/07 11:49:54;;;;;;;6.70;4.00;;;;;;;;;;729618;189;914922;-75
2022/11/07 11:52:20;;;;;;;6.83;4.03;;;;;;;;;;733582;191;902797;-76
2022/11/07 11:54:46;;;;;;;6.60;4.57;;;;;;;;;;733783;191;816851;-75
2022/11/07 11:57:14;;;;;;;6.27;3.70;;;;;;;;;;727439;191;922215;-76
2022/11/07 11:59:55;;;;;;;8.02;4.60;;;;;;;;;;733321;188;918960;-75
2022/11/07 12:02:38;;;;;;;7.37;4.50;;;;;;;;;;731040;189;918699;-76
2022/11/07 12:05:22;;;;;;;9.37;5.13;;;;;;;;;;730904;189;919134;-74
2022/11/07 12:07:50;;;;;;;7.23;4.53;;;;;;;;;;732077;189;938525;-74
2022/11/07 12:10:25;;;;;;;7.00;5.03;;;;;;;;;;735024;189;918653;-75
2022/11/07 12:12:54;;;;;;;7.90;4.47;;;;;;;;;;734546;190;816790;-74
2022/11/07 12:15:20;;;;;;;9.20;5.40;;;;;;;;;;730436;190;815199;-75
2022/11/07 12:17:49;;;;;;;11.47;4.97;;;;;;;;;;733664;190;842835;-75
2022/11/07 12:20:25;;;;;;;7.77;6.13;;;;;;;;;;739219;189;878202;-74
2022/11/07 12:23:01;;;;;;;6.80;5.13;;;;;;;;;;738815;188;921777;-74
2022/11/07 12:25:28;;;;;;;7.60;5.10;;;;;;;;;;731305;191;919583;-75
2022/11/07 12:27:57;;;;;;;6.80;4.80;;;;;;;;;;734340;188;919500;-74
2022/11/07 12:30:23;;;;;;;9.40;5.40;;;;;;;;;;736223;190;918781;-74
2022/11/07 12:32:55;;;;;;;9.30;5.53;;;;;;;;;;732882;190;893243;-75
2022/11/07 12:35:22;;;;;;;9.97;6.03;;;;;;;;;;709787;197;918067;-76
2022/11/07 12:37:54;;;;;;;8.30;4.90;;;;;;;;;;729136;189;920231;-75
2022/11/07 12:40:33;;;;;;;7.55;5.22;;;;;;;;;;729702;190;920021;-75
2022/11/07 12:43:05;;;;;;;11.13;5.13;;;;;;;;;;727819;189;918832;-75
2022/11/07 12:45:49;;;;;;;7.27;5.43;;;;;;;;;;730388;190;918448;-75
2022/11/07 12:48:25;;;;;;;8.55;5.37;;;;;;;;;;726435;188;917629;-75
2022/11/07 12:50:52;;;;;;;9.83;5.27;;;;;;;;;;737746;190;918383;-75
2022/11/07 12:53:24;;;;;;;10.23;5.17;;;;;;;;;;710121;195;919184;-76
2022/11/07 12:55:51;;;;;;;8.40;5.63;;;;;;;;;;726004;191;915996;-76
2022/11/07 12:58:20;;;;;;;6.63;5.60;;;;;;;;;;732488;188;812182;-75
2022/11/07 13:00:45;;;;;;;11.37;6.80;;;;;;;;;;735906;191;832834;-76
2022/11/07 13:03:26;;;;;;;9.50;5.40;;;;;;;;;;731634;190;908985;-75
2022/11/07 13:05:56;;;;;;;11.83;5.80;;;;;;;;;;733641;190;917006;-75
2022/11/07 13:08:25;;;;;;;8.67;5.90;;;;;;;;;;732486;188;915859;-75
2022/11/07 13:10:51;;;;;;;8.50;4.90;;;;;;;;;;731148;191;919055;-74
2022/11/07 13:13:18;;;;;;;8.07;5.47;;;;;;;;;;735424;189;919084;-74
2022/11/07 13:15:44;;;;;;;9.77;4.97;;;;;;;;;;726200;190;845461;-74
2022/11/07 13:18:28;;;;;;;6.80;5.20;;;;;;;;;;735734;189;815940;-74
2022/11/07 13:20:59;;;;;;;8.47;5.13;;;;;;;;;;733824;190;914355;-74
2022/11/07 13:23:25;;;;;;;7.43;4.60;;;;;;;;;;733902;190;921071;-75
2022/11/07 13:25:51;;;;;;;11.27;6.20;;;;;;;;;;743143;186;918426;-74
2022/11/07 13:28:29;;;;;;;9.80;5.63;;;;;;;;;;734730;189;917990;-75
2022/11/07 13:30:55;;;;;;;8.67;6.93;;;;;;;;;;737817;187;920677;-75
2022/11/07 13:33:25;;;;;;;7.80;5.57;;;;;;;;;;737450;185;918423;-76
2022/11/07 13:35:52;;;;;;;6.70;5.43;;;;;;;;;;743305;190;911403;-75
2022/11/07 13:38:17;;;;;;;8.13;5.40;;;;;;;;;;729285;190;908231;-75
2022/11/07 13:40:44;;;;;;;8.73;5.23;;;;;;;;;;728918;190;916507;-74
2022/11/07 13:43:12;;;;;;;13.40;6.60;;;;;;;;;;738523;187;805927;-75
2022/11/07 13:45:42;;;;;;;8.20;4.97;;;;;;;;;;733523;188;919815;-74
2022/11/07 13:48:09;;;;;;;13.13;5.80;;;;;;;;;;729544;190;941864;-74
2022/11/07 13:50:36;;;;;;;6.40;5.10;;;;;;;;;;732802;189;835288;-74
2022/11/07 13:53:02;;;;;;;12.20;6.10;;;;;;;;;;738125;188;928389;-74
2022/11/07 13:55:28;;;;;;;13.50;6.87;;;;;;;;;;731245;190;879215;-74
2022/11/07 13:57:55;;;;;;;8.17;5.60;;;;;;;;;;737137;189;816831;-74
2022/11/07 14:00:21;;;;;;;9.43;5.40;;;;;;;;;;737741;190;915789;-75
2022/11/07 14:02:49;;;;;;;11.13;6.27;;;;;;;;;;726335;191;917100;-75
2022/11/07 14:05:14;;;;;;;8.93;5.00;;;;;;;;;;733567;190;918498;-75
2022/11/07 14:07:40;;;;;;;8.00;5.10;;;;;;;;;;736113;189;918183;-74
2022/11/07 14:10:06;;;;;;;7.40;5.10;;;;;;;;;;737295;188;834042;-75
2022/11/07 14:12:32;;;;;;;6.90;4.20;;;;;;;;;;732244;191;915888;-74
2022/11/07 14:14:58;;;;;;;7.22;5.18;;;;;;;;;;725164;190;916638;-75
2022/11/07 14:17:24;;;;;;;11.63;6.20;;;;;;;;;;741173;191;813869;-74
2022/11/07 14:19:50;;;;;;;10.40;6.87;;;;;;;;;;735623;191;816759;-75
2022/11/07 14:22:26;;;;;;;8.17;5.73;;;;;;;;;;733296;190;928902;-74
2022/11/07 14:24:52;;;;;;;8.97;5.33;;;;;;;;;;732285;188;912918;-75